Time;durP1;ratioP1;P1;durP2;ratioP2;P2;SDS_P1;SDS_P2;PMS_P1;PMS_P2;Temp;Humidity;BMP_temperature;BMP_pressure;BME280_temperature;BME280_humidity;BME280_pressure;Samples;Min_cycle;Max_cycle;Signal;HPM_P1;HPM_P2
2023/09/25 00:00:35;;;;;;;5.68;1.50;;;11.50;1.00;;;;;;6270133;22;20443;-66
2023/09/25 00:03:02;;;;;;;5.10;1.30;;;11.50;99.90;;;;;;6269841;22;20469;-66
2023/09/25 00:05:29;;;;;;;7.22;1.80;;;11.40;99.90;;;;;;6269294;22;20348;-66
2023/09/25 00:07:56;;;;;;;7.20;2.33;;;11.50;99.90;;;;;;6270064;22;20903;-66
2023/09/25 00:10:22;;;;;;;4.95;1.30;;;11.50;99.90;;;;;;6270301;22;20382;-66
2023/09/25 00:12:47;;;;;;;7.50;1.80;;;11.50;99.90;;;;;;6270270;22;20390;-66
2023/09/25 00:15:14;;;;;;;6.33;1.50;;;11.40;99.90;;;;;;6270528;22;20360;-66
2023/09/25 00:17:40;;;;;;;6.07;1.88;;;11.40;99.90;;;;;;6270665;22;20360;-66
2023/09/25 00:20:10;;;;;;;5.95;1.40;;;11.30;1.00;;;;;;6269959;22;20391;-66
2023/09/25 00:22:36;;;;;;;6.32;2.08;;;11.30;1.00;;;;;;6269920;22;20383;-66
2023/09/25 00:25:02;;;;;;;6.45;2.13;;;11.20;39.10;;;;;;6269979;22;20696;-66
2023/09/25 00:27:31;;;;;;;10.63;1.73;;;11.10;99.90;;;;;;6270687;22;20365;-66
2023/09/25 00:29:57;;;;;;;7.85;1.70;;;11.10;99.90;;;;;;6271567;22;20406;-66
2023/09/25 00:32:22;;;;;;;7.68;1.58;;;11.10;99.90;;;;;;6271013;22;20364;-66
2023/09/25 00:34:48;;;;;;;5.20;1.80;;;11.00;99.90;;;;;;6270816;22;20488;-66
2023/09/25 00:37:13;;;;;;;5.93;1.80;;;10.90;1.00;;;;;;6271096;22;20364;-66
2023/09/25 00:39:41;;;;;;;6.10;1.90;;;10.90;1.00;;;;;;6243167;22;20708;-66
2023/09/25 00:42:07;;;;;;;5.70;2.10;;;11.00;1.00;;;;;;6269972;22;20368;-66
2023/09/25 00:44:33;;;;;;;6.20;1.80;;;11.00;1.00;;;;;;6269641;22;20357;-66
2023/09/25 00:46:59;;;;;;;7.50;1.60;;;10.90;99.90;;;;;;6269248;22;20361;-66
2023/09/25 00:49:25;;;;;;;6.33;1.70;;;10.80;1.00;;;;;;6269843;22;20389;-66
2023/09/25 00:51:51;;;;;;;5.23;1.57;;;10.80;1.00;;;;;;6269830;22;20413;-66
2023/09/25 00:54:18;;;;;;;5.95;1.65;;;10.80;1.00;;;;;;6269744;22;20368;-66
2023/09/25 00:56:48;;;;;;;7.32;1.90;;;10.80;1.00;;;;;;6268891;22;20632;-66
2023/09/25 00:59:15;;;;;;;6.28;1.70;;;10.90;1.00;;;;;;6270272;22;20762;-66
2023/09/25 01:01:41;;;;;;;6.47;2.00;;;10.90;1.00;;;;;;6270062;22;20518;-66
2023/09/25 01:04:08;;;;;;;5.45;1.40;;;10.90;1.00;;;;;;6269672;22;20894;-66
2023/09/25 01:06:33;;;;;;;7.60;1.83;;;10.90;1.00;;;;;;6269839;22;20347;-66
2023/09/25 01:08:59;;;;;;;5.90;2.17;;;10.90;1.00;;;;;;6269800;22;20822;-66
2023/09/25 01:11:24;;;;;;;5.10;1.40;;;10.90;1.00;;;;;;6269780;22;20439;-66
2023/09/25 01:13:50;;;;;;;5.50;1.60;;;10.90;1.00;;;;;;6269966;22;20391;-66
2023/09/25 01:16:16;;;;;;;5.60;1.70;;;10.90;1.00;;;;;;6269698;22;20344;-66
2023/09/25 01:18:42;;;;;;;7.47;1.80;;;10.80;1.00;;;;;;6271458;22;20807;-66
2023/09/25 01:21:07;;;;;;;10.95;2.42;;;10.70;1.00;;;;;;6271076;22;20486;-66
2023/09/25 01:23:33;;;;;;;6.80;2.20;;;10.60;1.00;;;;;;6270548;22;20388;-66
2023/09/25 01:25:59;;;;;;;5.90;1.88;;;10.60;1.00;;;;;;6269921;22;20368;-66
2023/09/25 01:28:25;;;;;;;5.88;1.70;;;10.60;3.90;;;;;;6269808;22;20363;-66
2023/09/25 01:30:50;;;;;;;5.80;1.50;;;10.70;1.00;;;;;;6269614;22;20360;-66
2023/09/25 01:33:16;;;;;;;4.97;1.57;;;10.70;1.00;;;;;;6269540;22;20422;-66
2023/09/25 01:35:42;;;;;;;6.03;1.80;;;10.70;1.00;;;;;;6270320;22;20422;-66
2023/09/25 01:38:08;;;;;;;6.32;1.63;;;10.60;1.00;;;;;;6269939;22;20360;-66
2023/09/25 01:40:33;;;;;;;5.17;1.60;;;10.60;1.00;;;;;;6269589;22;20437;-66
2023/09/25 01:42:59;;;;;;;5.47;1.40;;;10.60;1.00;;;;;;6267969;22;20430;-66
2023/09/25 01:45:25;;;;;;;5.10;1.25;;;10.60;1.00;;;;;;6269425;22;20374;-66
2023/09/25 01:47:51;;;;;;;6.03;1.80;;;10.50;1.00;;;;;;6269469;22;20352;-66
2023/09/25 01:50:18;;;;;;;6.68;1.60;;;10.50;1.00;;;;;;6269808;22;20366;-66
2023/09/25 01:52:47;;;;;;;5.83;1.57;;;10.40;1.00;;;;;;6270313;22;20751;-66
2023/09/25 01:55:13;;;;;;;5.93;1.40;;;10.40;1.00;;;;;;6270581;22;20364;-66
2023/09/25 01:57:39;;;;;;;7.07;1.60;;;10.40;1.00;;;;;;6270101;22;20376;-66
2023/09/25 02:00:09;;;;;;;6.30;1.57;;;10.40;1.00;;;;;;6268731;22;20471;-66
2023/09/25 02:02:36;;;;;;;5.47;1.60;;;10.40;1.00;;;;;;6267914;22;20356;-66
2023/09/25 02:05:02;;;;;;;5.80;2.00;;;10.40;1.00;;;;;;6267930;22;20665;-66
2023/09/25 02:07:28;;;;;;;6.40;1.95;;;10.30;1.00;;;;;;6268077;22;20364;-66
2023/09/25 02:09:53;;;;;;;5.57;1.60;;;10.30;10.70;;;;;;6268148;22;20366;-66
2023/09/25 02:12:19;;;;;;;6.32;1.90;;;10.30;25.40;;;;;;6269323;22;20369;-66
2023/09/25 02:14:44;;;;;;;5.43;1.53;;;10.20;99.90;;;;;;6268257;22;20435;-66
2023/09/25 02:17:10;;;;;;;7.80;1.80;;;10.10;99.90;;;;;;6269926;22;20842;-66
2023/09/25 02:19:36;;;;;;;5.93;1.25;;;10.00;99.90;;;;;;6269409;22;20387;-66
2023/09/25 02:22:06;;;;;;;6.20;2.40;;;9.80;99.90;;;;;;6269547;22;20422;-66
2023/09/25 02:24:35;;;;;;;5.90;1.70;;;9.80;99.90;;;;;;6269441;22;20364;-66
2023/09/25 02:27:01;;;;;;;6.80;2.60;;;9.60;1.00;;;;;;6269222;22;20357;-66
2023/09/25 02:29:26;;;;;;;9.70;1.70;;;9.50;1.00;;;;;;6268387;22;20360;-66
2023/09/25 02:31:52;;;;;;;8.17;2.03;;;9.40;1.00;;;;;;6269081;22;20382;-66
2023/09/25 02:34:17;;;;;;;7.07;1.98;;;9.30;1.00;;;;;;6269348;22;20360;-66
2023/09/25 02:36:43;;;;;;;5.57;1.85;;;9.30;1.00;;;;;;6270022;22;20385;-66
2023/09/25 02:39:10;;;;;;;7.00;1.70;;;9.30;1.00;;;;;;6269504;22;20820;-66
2023/09/25 02:41:35;;;;;;;7.47;1.55;;;9.30;1.00;;;;;;6269259;22;20835;-66
2023/09/25 02:44:01;;;;;;;5.50;2.00;;;9.20;1.00;;;;;;6268618;22;20368;-66
2023/09/25 02:46:27;;;;;;;6.63;2.10;;;9.40;1.00;;;;;;6269132;22;20890;-66
2023/09/25 02:48:52;;;;;;;5.32;1.63;;;9.40;1.00;;;;;;6269237;22;20368;-65
2023/09/25 02:51:18;;;;;;;7.33;1.80;;;9.40;1.00;;;;;;6269378;22;20392;-65
2023/09/25 02:53:43;;;;;;;7.80;1.60;;;9.40;1.00;;;;;;6270025;22;20450;-65
2023/09/25 02:56:09;;;;;;;7.25;1.85;;;9.40;1.00;;;;;;6269615;22;20398;-66
2023/09/25 02:58:34;;;;;;;5.30;1.70;;;9.40;1.00;;;;;;6268940;22;20390;-66
2023/09/25 03:01:00;;;;;;;6.17;1.40;;;9.30;99.90;;;;;;6268674;22;20360;-66
2023/09/25 03:03:27;;;;;;;4.95;1.35;;;9.10;99.90;;;;;;6269023;22;20832;-66
2023/09/25 03:05:54;;;;;;;8.27;1.87;;;9.00;99.90;;;;;;6269058;22;20352;-66
2023/09/25 03:08:19;;;;;;;6.77;2.00;;;8.80;1.00;;;;;;6269202;22;20371;-66
2023/09/25 03:10:45;;;;;;;7.45;2.50;;;8.70;1.00;;;;;;6269106;22;20368;-66
2023/09/25 03:13:10;;;;;;;8.67;1.90;;;8.60;1.00;;;;;;6269143;22;20443;-66
2023/09/25 03:15:36;;;;;;;8.60;2.27;;;8.60;1.00;;;;;;6268577;22;20372;-66
2023/09/25 03:18:01;;;;;;;5.00;1.02;;;8.60;1.00;;;;;;6268890;22;20820;-66
2023/09/25 03:20:28;;;;;;;5.33;1.67;;;8.60;1.00;;;;;;6269289;22;20434;-66
2023/09/25 03:22:54;;;;;;;5.25;1.55;;;8.70;1.00;;;;;;6269098;22;20367;-66
2023/09/25 03:25:20;;;;;;;6.30;2.20;;;8.60;1.00;;;;;;6269418;22;20728;-66
2023/09/25 03:27:46;;;;;;;5.47;1.52;;;8.70;1.00;;;;;;6270244;22;20406;-66
2023/09/25 03:30:13;;;;;;;7.18;1.60;;;8.70;1.00;;;;;;6270500;22;20361;-66
2023/09/25 03:32:38;;;;;;;6.10;1.90;;;8.70;1.00;;;;;;6270300;22;20364;-66
2023/09/25 03:35:04;;;;;;;5.87;1.70;;;8.60;1.00;;;;;;6270176;22;20403;-66
2023/09/25 03:37:30;;;;;;;4.90;1.60;;;8.50;1.00;;;;;;6270031;22;20386;-66
2023/09/25 03:39:56;;;;;;;6.03;2.10;;;8.60;1.00;;;;;;6269923;22;20384;-65
2023/09/25 03:42:21;;;;;;;6.40;1.90;;;8.60;1.00;;;;;;6269206;22;20368;-65
2023/09/25 03:44:47;;;;;;;5.50;1.70;;;8.50;1.00;;;;;;6269677;22;20360;-66
2023/09/25 03:47:13;;;;;;;5.18;1.70;;;8.40;1.00;;;;;;6271007;22;20356;-67
2023/09/25 03:49:39;;;;;;;6.30;1.70;;;8.50;1.00;;;;;;6270081;22;20371;-65
2023/09/25 03:52:05;;;;;;;6.17;1.80;;;8.50;1.00;;;;;;6270445;22;20375;-65
2023/09/25 03:54:30;;;;;;;12.95;2.10;;;8.60;1.00;;;;;;6271010;22;20684;-66
2023/09/25 03:56:56;;;;;;;5.40;1.73;;;8.60;1.00;;;;;;6270533;22;20645;-66
2023/09/25 03:59:22;;;;;;;5.72;1.73;;;8.60;1.00;;;;;;6269578;22;20858;-65
2023/09/25 04:01:48;;;;;;;6.90;2.13;;;8.60;1.00;;;;;;6269279;22;20812;-65
2023/09/25 04:04:13;;;;;;;9.80;1.80;;;8.50;1.00;;;;;;6273802;22;20388;-65
2023/09/25 04:06:39;;;;;;;6.57;2.00;;;8.40;1.00;;;;;;6279877;22;20746;-65
2023/09/25 04:09:07;;;;;;;7.90;1.55;;;8.40;1.00;;;;;;6280069;22;20377;-65
2023/09/25 04:11:33;;;;;;;5.50;1.40;;;8.30;1.00;;;;;;6274705;22;20844;-65
2023/09/25 04:14:00;;;;;;;5.82;1.30;;;8.20;1.00;;;;;;6270397;22;20360;-65
2023/09/25 04:16:28;;;;;;;7.10;1.60;;;8.20;1.00;;;;;;6271452;22;20360;-65
2023/09/25 04:18:57;;;;;;;4.70;1.10;;;8.30;1.00;;;;;;6244580;22;20380;-65
2023/09/25 04:21:22;;;;;;;7.55;2.70;;;8.30;1.00;;;;;;6271621;22;20356;-65
2023/09/25 04:23:48;;;;;;;13.90;2.70;;;8.20;1.00;;;;;;6271427;22;20715;-64
2023/09/25 04:26:14;;;;;;;6.32;1.75;;;7.90;1.00;;;;;;6272105;22;20352;-65
2023/09/25 04:28:43;;;;;;;5.20;1.67;;;7.90;1.00;;;;;;6272707;22;20360;-65
2023/09/25 04:31:12;;;;;;;9.40;2.28;;;8.00;1.00;;;;;;6274408;22;20410;-65
2023/09/25 04:33:38;;;;;;;7.90;1.93;;;8.00;1.00;;;;;;6273850;22;20372;-65
2023/09/25 04:36:08;;;;;;;5.78;1.63;;;8.10;1.00;;;;;;6273576;22;20392;-65
2023/09/25 04:38:35;;;;;;;7.55;2.00;;;8.20;1.00;;;;;;6271372;22;20364;-65
2023/09/25 04:41:00;;;;;;;7.07;2.30;;;8.10;1.00;;;;;;6271258;22;20383;-65
2023/09/25 04:43:26;;;;;;;7.00;1.60;;;8.10;1.00;;;;;;6269527;22;20360;-65
2023/09/25 04:45:52;;;;;;;9.15;1.83;;;8.10;1.00;;;;;;6270444;22;20429;-65
2023/09/25 04:48:21;;;;;;;4.90;1.40;;;8.10;1.00;;;;;;6271197;22;20356;-65
2023/09/25 04:50:47;;;;;;;6.07;1.30;;;8.10;1.00;;;;;;6270860;22;20360;-64
2023/09/25 04:53:14;;;;;;;5.15;1.67;;;8.00;1.00;;;;;;6270777;22;20367;-64
2023/09/25 04:55:40;;;;;;;5.32;2.10;;;7.90;1.00;;;;;;6270955;22;20683;-65
2023/09/25 04:58:06;;;;;;;7.30;1.65;;;7.90;1.00;;;;;;6269934;22;20356;-64
2023/09/25 05:00:32;;;;;;;5.07;1.60;;;7.90;1.00;;;;;;6270787;22;20704;-63
2023/09/25 05:02:58;;;;;;;4.87;1.43;;;7.90;1.00;;;;;;6270489;22;20361;-64
2023/09/25 05:05:24;;;;;;;8.32;2.78;;;7.90;1.00;;;;;;6270399;22;20374;-65
2023/09/25 05:07:51;;;;;;;7.10;1.90;;;7.90;1.00;;;;;;6270525;22;20367;-65
2023/09/25 05:10:22;;;;;;;6.67;1.87;;;7.90;1.00;;;;;;6270116;22;20366;-64
2023/09/25 05:12:48;;;;;;;5.82;1.40;;;7.80;1.00;;;;;;6270384;22;20700;-65
2023/09/25 05:15:15;;;;;;;6.47;1.90;;;7.80;1.00;;;;;;6270162;22;20360;-65
2023/09/25 05:17:42;;;;;;;7.13;2.70;;;7.80;1.00;;;;;;6271285;22;20447;-65
2023/09/25 05:20:15;;;;;;;7.30;1.67;;;7.90;1.00;;;;;;6270068;22;20380;-65
2023/09/25 05:22:43;;;;;;;6.35;2.20;;;7.90;1.00;;;;;;6271728;22;20364;-65
2023/09/25 05:25:10;;;;;;;5.70;1.80;;;7.90;1.00;;;;;;6270210;22;20429;-65
2023/09/25 05:27:36;;;;;;;5.53;1.35;;;8.00;1.00;;;;;;6270609;22;20356;-65
2023/09/25 05:30:09;;;;;;;5.30;1.60;;;8.10;1.00;;;;;;6271038;22;20407;-65
2023/09/25 05:32:35;;;;;;;5.47;1.73;;;8.10;1.00;;;;;;6270863;22;20367;-65
2023/09/25 05:35:01;;;;;;;6.78;2.25;;;8.20;1.00;;;;;;6268956;22;20451;-65
2023/09/25 05:37:27;;;;;;;6.87;2.63;;;8.80;9.40;;;;;;6268933;22;20427;-65
2023/09/25 05:39:52;;;;;;;7.90;2.20;;;9.60;1.00;;;;;;6268271;22;20380;-66
2023/09/25 05:42:18;;;;;;;6.13;1.80;;;10.30;1.00;;;;;;6269298;22;20490;-66
2023/09/25 05:44:43;;;;;;;7.00;2.20;;;11.00;99.90;;;;;;6269978;22;20432;-64
2023/09/25 05:47:09;;;;;;;7.40;2.50;;;11.80;99.90;;;;;;6269522;22;20401;-64
2023/09/25 05:49:34;;;;;;;7.28;2.33;;;12.20;99.90;;;;;;6269320;22;20407;-66
2023/09/25 05:52:00;;;;;;;7.63;2.28;;;13.20;85.50;;;;;;6270374;22;20831;-66
2023/09/25 05:54:25;;;;;;;9.00;2.20;;;14.30;99.90;;;;;;6270069;22;20823;-66
2023/09/25 05:56:51;;;;;;;5.80;2.03;;;15.10;1.00;;;;;;6270357;22;20375;-65
2023/09/25 05:59:16;;;;;;;7.73;2.60;;;15.60;1.00;;;;;;6271444;22;20384;-66
2023/09/25 06:01:42;;;;;;;7.30;2.90;;;16.20;1.00;;;;;;6271224;22;20878;-66
2023/09/25 06:04:12;;;;;;;6.10;2.00;;;17.00;1.00;;;;;;6270473;22;20356;-66
2023/09/25 06:06:37;;;;;;;6.50;2.10;;;17.60;99.90;;;;;;6269226;22;20356;-66
2023/09/25 06:09:08;;;;;;;6.90;2.00;;;17.90;99.90;;;;;;6268511;22;20443;-66
2023/09/25 06:11:38;;;;;;;7.07;1.92;;;18.00;99.90;;;;;;6269960;22;20474;-66
2023/09/25 06:14:03;;;;;;;8.00;2.40;;;17.70;99.90;;;;;;6270311;22;20380;-66
2023/09/25 06:16:29;;;;;;;6.47;2.05;;;17.70;99.90;;;;;;6270398;22;20394;-66
2023/09/25 06:18:54;;;;;;;7.00;2.07;;;18.00;99.90;;;;;;6269934;22;20380;-66
2023/09/25 06:21:20;;;;;;;8.47;2.37;;;18.40;99.90;;;;;;6270226;22;20824;-66
2023/09/25 06:23:47;;;;;;;6.90;2.37;;;19.00;99.90;;;;;;6269647;22;20665;-66
2023/09/25 06:26:12;;;;;;;6.50;2.22;;;20.10;99.90;;;;;;6271080;22;20780;-66
2023/09/25 06:28:38;;;;;;;6.57;2.20;;;20.90;99.90;;;;;;6270391;22;20450;-66
2023/09/25 06:31:04;;;;;;;6.90;2.27;;;21.40;99.90;;;;;;6270182;22;20368;-66
2023/09/25 06:33:29;;;;;;;8.00;2.70;;;21.50;99.90;;;;;;6270047;22;20828;-66
2023/09/25 06:35:55;;;;;;;6.80;2.43;;;21.90;99.90;;;;;;6269844;22;20368;-66
2023/09/25 06:38:21;;;;;;;7.23;2.17;;;22.50;99.90;;;;;;6269869;22;20415;-66
2023/09/25 06:40:47;;;;;;;7.97;2.60;;;23.30;99.90;;;;;;6270220;22;20387;-67
2023/09/25 06:43:13;;;;;;;10.00;2.60;;;23.30;99.90;;;;;;6270737;22;20360;-66
2023/09/25 06:45:43;;;;;;;6.95;2.03;;;22.80;99.90;;;;;;6269912;22;20395;-66
2023/09/25 06:48:09;;;;;;;6.90;1.80;;;23.30;99.90;;;;;;6270042;22;20447;-66
2023/09/25 06:50:35;;;;;;;6.55;1.90;;;23.90;99.90;;;;;;6269998;22;20364;-66
2023/09/25 06:53:01;;;;;;;6.60;2.05;;;24.50;99.90;;;;;;6269864;22;20368;-67
2023/09/25 06:55:27;;;;;;;6.22;2.08;;;24.20;99.90;;;;;;6269884;22;20364;-67
2023/09/25 06:57:53;;;;;;;7.20;2.20;;;23.60;99.90;;;;;;6270403;22;20362;-67
2023/09/25 07:00:18;;;;;;;6.90;2.53;;;23.60;99.90;;;;;;6270288;22;20391;-67
2023/09/25 07:02:44;;;;;;;7.90;2.20;;;24.00;99.90;;;;;;6271595;22;20552;-67
2023/09/25 07:05:10;;;;;;;8.03;2.50;;;24.40;99.90;;;;;;6271901;22;20364;-67
2023/09/25 07:07:36;;;;;;;6.47;2.10;;;25.20;99.90;;;;;;6271042;22;20820;-67
2023/09/25 07:10:05;;;;;;;6.82;1.95;;;26.10;99.90;;;;;;6271298;22;20352;-67
2023/09/25 07:12:30;;;;;;;7.50;2.38;;;27.10;99.90;;;;;;6271835;22;20402;-67
2023/09/25 07:14:56;;;;;;;8.30;2.50;;;27.70;99.90;;;;;;6271669;22;20360;-67
2023/09/25 07:17:26;;;;;;;8.77;2.80;;;26.10;99.90;;;;;;6271114;22;20361;-67
2023/09/25 07:19:52;;;;;;;6.50;2.40;;;25.00;99.90;;;;;;6271032;22;20384;-67
2023/09/25 07:22:21;;;;;;;6.50;2.00;;;24.70;99.90;;;;;;6270846;22;20363;-67
2023/09/25 07:24:47;;;;;;;7.13;2.17;;;25.20;1.00;;;;;;6243993;22;20368;-67
2023/09/25 07:27:13;;;;;;;6.57;2.28;;;25.00;1.00;;;;;;6272015;22;20443;-67
2023/09/25 07:29:45;;;;;;;6.75;2.10;;;25.30;1.00;;;;;;6271715;22;20399;-67
2023/09/25 07:32:12;;;;;;;7.20;2.80;;;25.70;1.00;;;;;;6244902;22;20368;-67
2023/09/25 07:34:40;;;;;;;6.10;2.00;;;25.30;1.00;;;;;;6270863;22;20376;-67
2023/09/25 07:37:07;;;;;;;6.22;2.13;;;24.90;1.00;;;;;;6271421;22;20735;-67
2023/09/25 07:39:34;;;;;;;6.80;2.08;;;25.60;99.90;;;;;;6271175;22;20429;-67
2023/09/25 07:42:00;;;;;;;5.95;1.80;;;27.40;99.90;;;;;;6271375;22;20392;-67
2023/09/25 07:44:26;;;;;;;7.43;1.98;;;28.60;99.90;;;;;;6271572;22;20680;-67
2023/09/25 07:46:57;;;;;;;6.50;1.80;;;29.10;99.90;;;;;;6271310;22;20340;-67
2023/09/25 07:49:23;;;;;;;8.80;3.20;;;29.10;99.90;;;;;;6271016;22;20753;-67
2023/09/25 07:51:49;;;;;;;6.55;2.40;;;28.20;99.90;;;;;;6271838;22;20377;-67
2023/09/25 07:54:15;;;;;;;6.18;1.80;;;27.30;99.90;;;;;;6271037;22;20569;-67
2023/09/25 07:56:40;;;;;;;6.95;2.08;;;27.70;99.90;;;;;;6271724;22;20364;-67
2023/09/25 07:59:07;;;;;;;8.88;2.10;;;29.50;99.90;;;;;;6271241;22;20705;-67
2023/09/25 08:01:34;;;;;;;5.95;1.85;;;30.30;99.90;;;;;;6271470;22;20369;-67
2023/09/25 08:04:00;;;;;;;7.43;2.35;;;29.20;99.90;;;;;;6270278;22;20413;-67
2023/09/25 08:06:27;;;;;;;5.80;1.80;;;28.30;99.90;;;;;;6271378;22;20388;-67
2023/09/25 08:08:53;;;;;;;5.60;1.90;;;29.40;99.90;;;;;;6271091;22;20459;-68
2023/09/25 08:11:19;;;;;;;7.20;2.10;;;29.40;99.90;;;;;;6273043;22;20360;-67
2023/09/25 08:13:44;;;;;;;6.40;2.40;;;29.20;99.90;;;;;;6273858;22;20418;-67
2023/09/25 08:16:11;;;;;;;7.00;2.13;;;29.10;99.90;;;;;;6274140;22;20384;-67
2023/09/25 08:18:36;;;;;;;7.13;2.10;;;28.50;99.90;;;;;;6270725;22;20386;-67
2023/09/25 08:21:04;;;;;;;7.93;2.50;;;28.10;99.90;;;;;;6272589;22;20379;-67
2023/09/25 08:23:30;;;;;;;7.90;2.05;;;28.20;99.90;;;;;;6271991;22;20820;-67
2023/09/25 08:25:56;;;;;;;7.50;2.40;;;27.90;99.90;;;;;;6244502;22;20360;-67
2023/09/25 08:28:22;;;;;;;7.10;1.92;;;28.10;99.90;;;;;;6272758;22;20359;-67
2023/09/25 08:30:48;;;;;;;6.37;2.33;;;28.10;99.90;;;;;;6273077;22;20422;-67
2023/09/25 08:33:15;;;;;;;8.00;2.50;;;27.90;99.90;;;;;;6273575;22;20368;-67
2023/09/25 08:35:43;;;;;;;8.40;2.20;;;28.30;99.90;;;;;;6274698;22;20700;-67
2023/09/25 08:38:08;;;;;;;6.57;2.37;;;28.50;99.90;;;;;;6272966;22;20831;-67
2023/09/25 08:40:38;;;;;;;9.47;2.70;;;28.60;99.90;;;;;;6272111;22;20384;-67
2023/09/25 08:43:05;;;;;;;6.50;2.20;;;28.90;99.90;;;;;;6271838;22;20824;-67
2023/09/25 08:45:31;;;;;;;6.20;1.90;;;28.50;99.90;;;;;;6271731;22;20364;-67
2023/09/25 08:47:57;;;;;;;7.85;2.60;;;28.30;99.90;;;;;;6271796;22;20781;-67
2023/09/25 08:50:23;;;;;;;9.82;2.20;;;28.70;99.90;;;;;;6273208;22;20356;-67
2023/09/25 08:52:49;;;;;;;6.50;2.30;;;29.00;99.90;;;;;;6271922;22;20757;-67
2023/09/25 08:55:14;;;;;;;6.38;2.22;;;29.10;99.90;;;;;;6271185;22;20359;-67
2023/09/25 08:57:41;;;;;;;6.90;1.90;;;29.10;99.90;;;;;;6271785;22;20451;-67
2023/09/25 09:00:14;;;;;;;6.30;2.13;;;28.50;99.90;;;;;;6270706;22;20744;-67
2023/09/25 09:02:41;;;;;;;6.47;2.20;;;28.10;99.90;;;;;;6271739;22;20348;-67
2023/09/25 09:05:19;;;;;;;8.07;2.43;;;28.20;99.90;;;;;;6271149;22;20359;-67
2023/09/25 09:08:01;;;;;;;7.10;2.20;;;28.60;99.90;;;;;;6271382;22;20360;-67
2023/09/25 09:10:32;;;;;;;6.00;2.00;;;28.80;99.90;;;;;;6271076;22;20665;-67
2023/09/25 09:12:58;;;;;;;6.25;2.08;;;29.70;99.90;;;;;;6270481;22;20463;-67
2023/09/25 09:15:28;;;;;;;8.00;2.10;;;29.60;99.90;;;;;;6270138;22;20364;-68
2023/09/25 09:17:55;;;;;;;6.43;1.85;;;29.70;99.90;;;;;;6270916;22;20684;-68
2023/09/25 09:20:36;;;;;;;6.60;2.00;;;29.40;99.90;;;;;;6270541;22;20388;-68
2023/09/25 09:23:01;;;;;;;7.80;2.80;;;29.90;99.90;;;;;;6270525;22;20364;-68
2023/09/25 09:25:27;;;;;;;6.07;1.60;;;29.70;99.90;;;;;;6270336;22;20804;-68
2023/09/25 09:27:53;;;;;;;7.38;1.90;;;29.70;99.90;;;;;;6270900;22;20384;-66
2023/09/25 09:30:23;;;;;;;5.93;1.90;;;29.80;99.90;;;;;;6270547;22;20368;-67
2023/09/25 09:32:52;;;;;;;7.22;1.90;;;30.00;99.90;;;;;;6271007;22;20443;-67
2023/09/25 09:35:24;;;;;;;6.60;2.10;;;30.30;99.90;;;;;;6270667;22;20353;-67
2023/09/25 09:37:54;;;;;;;6.90;2.10;;;30.70;99.90;;;;;;6270978;22;20353;-67
2023/09/25 09:40:24;;;;;;;6.18;1.98;;;30.40;99.90;;;;;;6243103;22;20395;-67
2023/09/25 09:42:52;;;;;;;6.20;2.30;;;30.40;99.90;;;;;;6270505;22;20363;-67
2023/09/25 09:45:18;;;;;;;7.32;1.60;;;30.30;99.90;;;;;;6270012;22;20367;-67
2023/09/25 09:47:46;;;;;;;6.88;2.05;;;29.50;99.90;;;;;;6271185;22;20352;-67
2023/09/25 09:50:12;;;;;;;5.70;1.70;;;29.20;99.90;;;;;;6271004;22;20815;-67
2023/09/25 09:52:39;;;;;;;5.63;1.70;;;30.70;99.90;;;;;;6270277;22;20447;-67
2023/09/25 09:55:06;;;;;;;6.45;1.73;;;30.50;99.90;;;;;;6270721;22;20365;-68
2023/09/25 09:57:32;;;;;;;7.32;2.45;;;30.30;99.90;;;;;;6270450;22;20358;-67
2023/09/25 09:59:58;;;;;;;5.80;1.90;;;30.30;99.90;;;;;;6270258;22;20466;-67
2023/09/25 10:02:26;;;;;;;6.43;1.90;;;30.20;99.90;;;;;;6270715;22;20360;-67
2023/09/25 10:04:52;;;;;;;7.00;2.30;;;30.30;99.90;;;;;;6270607;22;20375;-67
2023/09/25 10:07:18;;;;;;;6.47;2.10;;;29.90;99.90;;;;;;6270438;22;20738;-67
2023/09/25 10:10:05;;;;;;;6.10;2.10;;;29.90;99.90;;;;;;6271003;22;20360;-67
2023/09/25 10:12:49;;;;;;;6.18;1.73;;;30.00;99.90;;;;;;6270434;22;20687;-67
2023/09/25 10:15:22;;;;;;;6.27;2.00;;;30.30;99.90;;;;;;6270003;22;20367;-67
2023/09/25 10:17:48;;;;;;;6.25;1.98;;;30.60;99.90;;;;;;6269973;22;20748;-67
2023/09/25 10:20:33;;;;;;;9.60;2.07;;;30.20;99.90;;;;;;6270640;22;20840;-67
2023/09/25 10:23:03;;;;;;;6.90;2.00;;;29.80;99.90;;;;;;6270208;22;20439;-67
2023/09/25 10:25:53;;;;;;;6.13;1.48;;;30.20;99.90;;;;;;6270546;22;20355;-67
2023/09/25 10:28:28;;;;;;;6.45;2.05;;;30.60;99.90;;;;;;6270257;22;20747;-67
2023/09/25 10:31:01;;;;;;;6.18;1.98;;;30.60;99.90;;;;;;6270686;22;20412;-66
2023/09/25 10:33:36;;;;;;;6.05;1.85;;;30.40;99.90;;;;;;6270566;22;20368;-67
2023/09/25 10:36:06;;;;;;;5.85;1.80;;;30.50;99.90;;;;;;6269717;22;20800;-66
2023/09/25 10:38:34;;;;;;;7.13;2.10;;;30.00;99.90;;;;;;6270189;22;20345;-66
2023/09/25 10:41:07;;;;;;;7.55;1.70;;;30.30;99.90;;;;;;6270561;22;20360;-66
2023/09/25 10:43:34;;;;;;;5.85;1.65;;;29.90;99.90;;;;;;6270298;22;20498;-66
2023/09/25 10:46:00;;;;;;;6.32;1.92;;;28.90;99.90;;;;;;6270152;22;20379;-67
2023/09/25 10:48:27;;;;;;;6.20;2.13;;;28.50;99.90;;;;;;6270801;22;20360;-67
2023/09/25 10:50:54;;;;;;;7.47;1.90;;;28.70;99.90;;;;;;6270177;22;20360;-67
2023/09/25 10:53:21;;;;;;;7.67;2.10;;;29.20;99.90;;;;;;6270256;22;20348;-67
2023/09/25 10:55:47;;;;;;;6.43;2.30;;;29.50;99.90;;;;;;6270409;22;20360;-67
2023/09/25 10:58:14;;;;;;;6.53;1.67;;;29.20;99.90;;;;;;6270402;22;20368;-67
2023/09/25 11:00:41;;;;;;;8.27;2.50;;;29.00;99.90;;;;;;6270998;22;20387;-67
2023/09/25 11:03:07;;;;;;;6.50;2.05;;;28.80;99.90;;;;;;6270488;22;20432;-67
2023/09/25 11:05:38;;;;;;;7.82;2.30;;;28.60;99.90;;;;;;6270108;22;20356;-67
2023/09/25 11:08:05;;;;;;;6.90;2.40;;;28.60;99.90;;;;;;6270174;22;20356;-67
2023/09/25 11:10:34;;;;;;;9.10;2.33;;;28.50;99.90;;;;;;6270111;22;20364;-67
2023/09/25 11:13:01;;;;;;;6.15;2.15;;;29.00;99.90;;;;;;6269822;22;20348;-67
2023/09/25 11:15:28;;;;;;;7.38;1.50;;;29.20;99.90;;;;;;6269621;22;20411;-67
2023/09/25 11:17:55;;;;;;;5.88;1.80;;;28.70;99.90;;;;;;6270086;22;20811;-67
2023/09/25 11:20:29;;;;;;;6.68;1.90;;;27.90;99.90;;;;;;6270395;22;20666;-67
2023/09/25 11:23:03;;;;;;;6.20;1.90;;;26.80;99.90;;;;;;6270501;22;20418;-67
2023/09/25 11:25:30;;;;;;;6.50;2.00;;;26.40;99.90;;;;;;6271049;22;20372;-66
2023/09/25 11:27:57;;;;;;;6.10;1.90;;;26.10;99.90;;;;;;6271120;22;20376;-65
2023/09/25 11:30:29;;;;;;;10.93;2.08;;;25.50;99.90;;;;;;6271186;22;20358;-66
2023/09/25 11:32:55;;;;;;;5.97;1.77;;;25.40;99.90;;;;;;6271251;22;20811;-66
2023/09/25 11:35:21;;;;;;;6.30;1.80;;;25.50;99.90;;;;;;6269532;22;20509;-66
2023/09/25 11:37:56;;;;;;;6.60;2.20;;;25.40;99.90;;;;;;6269887;22;20407;-67
2023/09/25 11:40:22;;;;;;;5.63;1.40;;;25.40;99.90;;;;;;6270027;22;20426;-67
2023/09/25 11:42:47;;;;;;;10.80;2.20;;;25.30;99.90;;;;;;6269716;22;20720;-67
2023/09/25 11:45:15;;;;;;;5.63;1.50;;;25.30;99.90;;;;;;6270276;22;20360;-67
2023/09/25 11:47:41;;;;;;;6.10;1.60;;;25.20;99.90;;;;;;6271629;22;20368;-67
2023/09/25 11:50:08;;;;;;;7.05;1.70;;;25.40;99.90;;;;;;6271455;22;20617;-67
2023/09/25 11:52:33;;;;;;;6.05;1.80;;;25.20;99.90;;;;;;6270918;22;20344;-67
2023/09/25 11:54:59;;;;;;;7.43;1.70;;;25.20;99.90;;;;;;6271796;22;20696;-66
2023/09/25 11:57:26;;;;;;;6.30;1.90;;;25.10;99.90;;;;;;6272089;22;20502;-66
2023/09/25 11:59:52;;;;;;;6.65;1.80;;;25.20;99.90;;;;;;6271781;22;20380;-66
2023/09/25 12:02:18;;;;;;;8.50;1.90;;;25.60;99.90;;;;;;6271108;22;20356;-66
2023/09/25 12:04:45;;;;;;;5.80;1.70;;;25.60;99.90;;;;;;6271461;22;20811;-67
2023/09/25 12:07:11;;;;;;;6.60;1.42;;;25.70;99.90;;;;;;6272063;22;20352;-67
2023/09/25 12:09:36;;;;;;;5.50;1.60;;;25.80;99.90;;;;;;6270712;22;20364;-67
2023/09/25 12:12:03;;;;;;;6.37;1.57;;;26.00;99.90;;;;;;6270790;22;20455;-67
2023/09/25 12:14:28;;;;;;;6.40;1.70;;;26.20;99.90;;;;;;6271195;22;20352;-67
2023/09/25 12:16:54;;;;;;;5.30;1.60;;;26.10;99.90;;;;;;6270800;22;20452;-67
2023/09/25 12:19:19;;;;;;;6.10;1.30;;;26.20;99.90;;;;;;6271224;22;20380;-67
2023/09/25 12:21:45;;;;;;;5.50;1.60;;;26.30;99.90;;;;;;6270962;22;20363;-66
2023/09/25 12:24:11;;;;;;;6.33;1.67;;;26.20;99.90;;;;;;6271305;22;20711;-67
2023/09/25 12:26:37;;;;;;;6.28;1.60;;;26.20;99.90;;;;;;6271579;22;20849;-67
2023/09/25 12:29:02;;;;;;;6.60;1.95;;;26.00;99.90;;;;;;6271452;22;20376;-67
2023/09/25 12:31:28;;;;;;;5.83;1.80;;;25.80;99.90;;;;;;6270670;22;20673;-66
2023/09/25 12:33:54;;;;;;;8.43;1.60;;;25.70;99.90;;;;;;6270573;22;20811;-66
2023/09/25 12:36:20;;;;;;;5.80;1.80;;;25.60;99.90;;;;;;6270799;22;20646;-67
2023/09/25 12:38:46;;;;;;;5.05;1.40;;;25.50;99.90;;;;;;6270769;22;20379;-67
2023/09/25 12:41:11;;;;;;;5.40;1.33;;;25.60;99.90;;;;;;6244596;22;20372;-66
2023/09/25 12:43:37;;;;;;;4.90;1.10;;;25.30;99.90;;;;;;6270307;22;20364;-66
2023/09/25 12:46:03;;;;;;;5.90;1.60;;;25.30;99.90;;;;;;6270526;22;20421;-66
2023/09/25 12:48:28;;;;;;;6.10;1.40;;;25.50;99.90;;;;;;6270708;22;20348;-66
2023/09/25 12:50:54;;;;;;;5.60;1.40;;;25.80;99.90;;;;;;6271156;22;20369;-66